This is the latest recevied weather packets stored in our database for station/object YB2YEN-13. If no packets are shown the sender has not sent any weather packets the latest 10 day(s).
| Time | Temp. | Humidity | Pressure | Rain* | Wind** | Luminosity | Snow |
|---|---|---|---|---|---|---|---|
| 1777350765 | 33.33° C | 72% | 977 hPa | - | - | 0 W/m² | - |
| 1777350444 | 33.33° C | 75% | 977 hPa | - | - | 0 W/m² | - |
| 1777350121 | 33.33° C | 76% | 978 hPa | - | - | 0 W/m² | - |
| 1777349799 | 33.89° C | 66% | 978 hPa | - | - | 0 W/m² | - |
| 1777349478 | 33.33° C | 71% | 978 hPa | - | - | 0 W/m² | - |
| 1777349155 | 33.89° C | 72% | 978 hPa | - | - | 0 W/m² | - |
| 1777348833 | 33.89° C | 68% | 978 hPa | - | - | 0 W/m² | - |
| 1777348512 | 34.44° C | 69% | 978 hPa | - | - | 0 W/m² | - |
| 1777348189 | 33.33° C | 74% | 978 hPa | - | - | 0 W/m² | - |
| 1777347868 | 34.44° C | 70% | 978 hPa | - | - | 0 W/m² | - |
| 1777347546 | 33.89° C | 76% | 978 hPa | - | - | 0 W/m² | - |
| 1777347224 | 34.44° C | 74% | 978 hPa | - | - | 0 W/m² | - |
| 1777346902 | 33.89° C | 82% | 979 hPa | - | - | 0 W/m² | - |
| 1777346580 | 33.89° C | 80% | 979 hPa | - | - | 0 W/m² | - |
| 1777346258 | 32.78° C | 80% | 979 hPa | - | - | 0 W/m² | - |
| 1777345936 | 33.89° C | 77% | 979 hPa | - | - | 0 W/m² | - |
| 1777345613 | 33.89° C | 79% | 979 hPa | - | - | 0 W/m² | - |
| 1777345291 | 34.44° C | 79% | 979 hPa | - | - | 0 W/m² | - |
| 1777344970 | 32.78° C | 87% | 979 hPa | - | - | 0 W/m² | - |
| 1777344647 | 32.78° C | 88% | 979 hPa | - | - | 0 W/m² | - |
| 1777344326 | 32.22° C | 88% | 979 hPa | - | - | 0 W/m² | - |
| 1777344004 | 32.22° C | 89% | 979 hPa | - | - | 0 W/m² | - |
| 1777343681 | 33.33° C | 81% | 979 hPa | - | - | 0 W/m² | - |
| 1777343360 | 31.11° C | 93% | 979 hPa | - | - | 0 W/m² | - |
| 1777343038 | 32.78° C | 99% | 979 hPa | - | - | 0 W/m² | - |
* Rain since midnight (hover to see other rain measurements)
** Current wind speed in m/s (hover to see current wind gust speed)